createdAt,value
2022-11-15T00:01:12.300Z,98759.44
2022-11-15T00:03:39.066Z,98763.75
2022-11-15T00:06:06.128Z,98747.75
2022-11-15T00:08:33.769Z,98764.63
2022-11-15T00:11:03.267Z,98767.94
2022-11-15T00:13:31.263Z,98766.00
2022-11-15T00:16:01.305Z,98769.41
2022-11-15T00:18:29.221Z,98750.06
2022-11-15T00:21:03.089Z,98768.41
2022-11-15T00:23:30.261Z,98769.25
2022-11-15T00:25:59.094Z,98765.09
2022-11-15T00:28:26.851Z,98773.28
2022-11-15T00:30:53.708Z,98768.00
2022-11-15T00:33:20.656Z,98768.91
2022-11-15T00:35:47.537Z,98761.00
2022-11-15T00:38:14.412Z,98764.38
2022-11-15T00:40:41.340Z,98754.13
2022-11-15T00:43:08.109Z,98752.47
2022-11-15T00:45:35.096Z,98757.88
2022-11-15T00:48:01.895Z,98749.28
2022-11-15T00:50:28.635Z,98751.19
2022-11-15T00:52:55.441Z,98744.19
2022-11-15T00:55:22.291Z,98750.25
2022-11-15T00:57:49.130Z,98735.63
2022-11-15T01:00:16.258Z,98741.59
2022-11-15T01:02:42.997Z,98740.00
2022-11-15T01:05:10.073Z,98734.28
2022-11-15T01:07:37.362Z,98720.66
2022-11-15T01:10:05.438Z,98732.41
2022-11-15T01:12:32.903Z,98717.16
2022-11-15T01:14:59.699Z,98716.94
2022-11-15T01:17:26.482Z,98726.59
2022-11-15T01:19:53.550Z,98723.13
2022-11-15T01:22:20.338Z,98723.19
2022-11-15T01:24:47.131Z,98724.97
2022-11-15T01:27:13.911Z,98718.97
2022-11-15T01:29:40.733Z,98717.63
2022-11-15T01:32:07.491Z,98719.31
2022-11-15T01:34:34.469Z,98717.06
2022-11-15T01:37:01.297Z,98711.88
2022-11-15T01:39:28.146Z,98712.97
2022-11-15T01:41:55.212Z,98712.97
2022-11-15T01:44:49.624Z,98709.59
2022-11-15T01:47:27.365Z,98703.72
2022-11-15T01:50:01.529Z,98708.97
2022-11-15T01:52:31.877Z,98710.53
2022-11-15T01:55:14.342Z,98698.94
2022-11-15T01:57:43.811Z,98707.44
2022-11-15T02:00:11.763Z,98693.13
2022-11-15T02:02:38.935Z,98697.66
2022-11-15T02:05:06.090Z,98695.56
2022-11-15T02:07:35.471Z,98701.75
2022-11-15T02:10:17.998Z,98703.50
2022-11-15T02:12:45.615Z,98702.66
2022-11-15T02:15:12.830Z,98674.84
2022-11-15T02:18:11.625Z,98681.38
2022-11-15T02:20:48.285Z,98678.06
2022-11-15T02:23:42.096Z,98688.31
2022-11-15T02:26:29.912Z,98679.16
2022-11-15T02:29:25.651Z,98679.06
2022-11-15T02:32:27.480Z,98677.63
2022-11-15T02:35:51.055Z,98680.19
2022-11-15T02:38:36.910Z,98669.25
2022-11-15T02:41:20.152Z,98675.34
2022-11-15T02:43:59.777Z,98652.41
2022-11-15T02:46:58.603Z,98671.81
2022-11-15T02:49:29.404Z,98674.75
2022-11-15T02:51:56.872Z,98656.31
2022-11-15T02:54:27.864Z,98663.47
2022-11-15T02:56:59.277Z,98669.63
2022-11-15T02:59:50.576Z,98653.22
2022-11-15T03:02:42.529Z,98653.38
2022-11-15T03:05:51.138Z,98653.66
2022-11-15T03:08:33.966Z,98652.84
2022-11-15T03:11:18.606Z,98656.25
2022-11-15T03:14:20.275Z,98662.31
2022-11-15T03:17:05.088Z,98658.81
2022-11-15T03:20:05.060Z,98657.88
2022-11-15T03:22:38.046Z,98655.28
2022-11-15T03:25:09.881Z,98649.28
2022-11-15T03:27:42.669Z,98644.06
2022-11-15T03:30:10.477Z,98642.47
2022-11-15T03:32:43.013Z,98633.13
2022-11-15T03:35:20.416Z,98628.75
2022-11-15T03:38:13.039Z,98625.28
2022-11-15T03:41:01.250Z,98629.66
2022-11-15T03:43:49.913Z,98616.13
2022-11-15T03:46:33.494Z,98623.53
2022-11-15T03:49:25.409Z,98625.31
2022-11-15T03:51:52.271Z,98613.94
2022-11-15T03:54:19.036Z,98611.34
2022-11-15T03:56:45.834Z,98596.47
2022-11-15T03:59:12.693Z,98606.47
2022-11-15T04:01:39.477Z,98599.75
2022-11-15T04:04:06.302Z,98616.50
2022-11-15T04:06:33.077Z,98603.19
2022-11-15T04:08:59.817Z,98607.25
2022-11-15T04:11:26.570Z,98600.53
2022-11-15T04:13:53.406Z,98607.19
2022-11-15T04:16:20.178Z,98602.69
2022-11-15T04:19:06.896Z,98600.25
2022-11-15T04:21:52.128Z,98590.31
2022-11-15T04:24:18.999Z,98603.75
2022-11-15T04:26:45.744Z,98607.13
2022-11-15T04:29:31.185Z,98600.47
2022-11-15T04:31:57.960Z,98604.91
2022-11-15T04:34:24.919Z,98608.19
2022-11-15T04:37:10.272Z,98603.06
2022-11-15T04:39:37.091Z,98597.97
2022-11-15T04:42:04.009Z,98598.88
2022-11-15T04:44:30.776Z,98596.31
2022-11-15T04:46:57.765Z,98596.41
2022-11-15T04:49:24.544Z,98597.44
2022-11-15T04:51:51.384Z,98591.44
2022-11-15T04:54:18.210Z,98598.59
2022-11-15T04:56:44.998Z,98600.25
2022-11-15T04:59:11.771Z,98589.19
2022-11-15T05:01:43.556Z,98586.72
2022-11-15T05:04:20.257Z,98580.88
2022-11-15T05:06:52.570Z,98586.88
2022-11-15T05:09:21.230Z,98578.22
2022-11-15T05:11:48.296Z,98584.44
2022-11-15T05:14:15.799Z,98581.84
2022-11-15T05:16:43.271Z,98582.78
2022-11-15T05:19:10.025Z,98578.34
2022-11-15T05:21:37.297Z,98578.50
2022-11-15T05:24:04.458Z,98580.81
2022-11-15T05:26:31.548Z,98585.44
2022-11-15T05:28:59.887Z,98571.53
2022-11-15T05:31:28.236Z,98582.78
2022-11-15T05:33:57.408Z,98579.34
2022-11-15T05:36:37.721Z,98572.44
2022-11-15T05:39:09.196Z,98580.16
2022-11-15T05:41:51.192Z,98577.50
2022-11-15T05:44:22.653Z,98574.88
2022-11-15T05:46:51.649Z,98569.72
2022-11-15T05:49:22.398Z,98564.34
2022-11-15T05:51:50.707Z,98566.13
2022-11-15T05:54:18.629Z,98560.19
2022-11-15T05:56:45.532Z,98564.47
2022-11-15T05:59:12.938Z,98534.31
2022-11-15T06:01:40.621Z,98557.75
2022-11-15T06:04:07.661Z,98561.34
2022-11-15T06:06:34.422Z,98558.66
2022-11-15T06:09:01.398Z,98563.09
2022-11-15T06:11:28.993Z,98563.75
2022-11-15T06:13:55.948Z,98552.59
2022-11-15T06:16:22.783Z,98553.63
2022-11-15T06:18:49.629Z,98562.78
2022-11-15T06:21:16.475Z,98555.44
2022-11-15T06:23:43.498Z,98578.34
2022-11-15T06:26:10.287Z,98574.88
2022-11-15T06:28:37.128Z,98579.28
2022-11-15T06:31:12.126Z,98575.97
2022-11-15T06:33:39.980Z,98560.91
2022-11-15T06:36:17.694Z,98574.28
2022-11-15T06:38:45.893Z,98567.34
2022-11-15T06:41:14.825Z,98583.63
2022-11-15T06:43:42.092Z,98576.75
2022-11-15T06:46:09.471Z,98572.69
2022-11-15T06:48:37.113Z,98566.75
2022-11-15T06:51:05.343Z,98569.97
2022-11-15T06:53:33.412Z,98555.88
2022-11-15T06:56:06.868Z,98570.84
2022-11-15T06:58:34.369Z,98558.25
2022-11-15T07:01:07.758Z,98575.13
2022-11-15T07:03:40.170Z,98586.16
2022-11-15T07:06:08.103Z,98583.50
2022-11-15T07:08:36.286Z,98572.28
2022-11-15T07:11:07.214Z,98577.41
2022-11-15T07:13:35.733Z,98573.84
2022-11-15T07:16:08.516Z,98567.94
2022-11-15T07:18:40.471Z,98577.41
2022-11-15T07:21:12.170Z,98576.56
2022-11-15T07:23:39.978Z,98565.69
2022-11-15T07:26:08.209Z,98582.44
2022-11-15T07:28:35.551Z,98585.84
2022-11-15T07:31:08.064Z,98586.72
2022-11-15T07:33:36.440Z,98579.91
2022-11-15T07:36:06.833Z,98575.47
2022-11-15T07:38:40.988Z,98584.81
2022-11-15T07:41:09.249Z,98583.84
2022-11-15T07:43:36.391Z,98580.38
2022-11-15T07:46:10.095Z,98574.28
2022-11-15T07:48:45.145Z,98560.47
2022-11-15T07:51:17.025Z,98560.41
2022-11-15T07:53:44.904Z,98539.09
2022-11-15T07:56:12.970Z,98559.38
2022-11-15T07:58:39.740Z,98530.53
2022-11-15T08:01:09.066Z,98549.94
2022-11-15T08:03:37.441Z,98547.84
2022-11-15T08:06:04.516Z,98539.50
2022-11-15T08:08:31.309Z,98546.81
2022-11-15T08:11:01.936Z,98544.94
2022-11-15T08:13:28.981Z,98537.81
2022-11-15T08:16:01.173Z,98535.25
2022-11-15T08:18:27.955Z,98535.22
2022-11-15T08:20:59.925Z,98543.47
2022-11-15T08:23:26.816Z,98531.44
2022-11-15T08:25:53.609Z,98524.38
2022-11-15T08:28:20.360Z,98524.16
2022-11-15T08:30:47.245Z,98529.25
2022-11-15T08:33:15.116Z,98523.03
2022-11-15T08:35:43.785Z,98519.28
2022-11-15T08:38:11.087Z,98518.16
2022-11-15T08:40:38.530Z,98519.75
2022-11-15T08:43:05.558Z,98512.88
2022-11-15T08:45:34.900Z,98503.97
2022-11-15T08:48:05.155Z,98503.81
2022-11-15T08:50:31.972Z,98508.81
2022-11-15T08:52:58.942Z,98506.09
2022-11-15T08:55:25.820Z,98511.88
2022-11-15T08:57:52.650Z,98511.63
2022-11-15T09:00:20.878Z,98502.88
2022-11-15T09:02:47.810Z,98498.56
2022-11-15T09:05:16.370Z,98493.19
2022-11-15T09:07:43.153Z,98492.22
2022-11-15T09:10:10.174Z,98471.09
2022-11-15T09:12:37.016Z,98485.00
2022-11-15T09:15:05.668Z,98475.38
2022-11-15T09:17:32.528Z,98474.34
2022-11-15T09:19:59.559Z,98485.34
2022-11-15T09:22:26.428Z,98480.88
2022-11-15T09:24:53.195Z,98473.88
2022-11-15T09:27:20.035Z,98482.22
2022-11-15T09:29:46.812Z,98480.34
2022-11-15T09:32:13.599Z,98475.06
2022-11-15T09:34:40.348Z,98452.25
2022-11-15T09:37:07.113Z,98476.34
2022-11-15T09:39:34.012Z,98469.34
2022-11-15T09:42:36.213Z,98464.81
2022-11-15T09:45:21.691Z,98445.81
2022-11-15T09:48:38.303Z,98466.31
2022-11-15T09:51:10.164Z,98466.16
2022-11-15T09:54:37.586Z,98463.44
2022-11-15T09:56:43.508Z,98454.78
2022-11-15T09:59:46.716Z,98452.63
2022-11-15T10:02:47.229Z,98441.25
2022-11-15T10:05:19.588Z,98436.84
2022-11-15T10:08:35.762Z,98438.34
2022-11-15T10:11:36.767Z,98429.16
2022-11-15T10:14:00.391Z,98441.53
2022-11-15T10:16:44.930Z,98432.69
2022-11-15T10:19:36.121Z,98429.06
2022-11-15T10:22:39.478Z,98422.78
2022-11-15T10:25:32.244Z,98393.34
2022-11-15T10:28:14.839Z,98424.81
2022-11-15T10:30:46.006Z,98416.00
2022-11-15T10:33:30.247Z,98405.41
2022-11-15T10:36:18.198Z,98401.75
2022-11-15T10:38:50.957Z,98405.88
2022-11-15T10:41:21.919Z,98395.28
2022-11-15T10:44:17.755Z,98395.97
2022-11-15T10:46:49.554Z,98389.72
2022-11-15T10:49:32.075Z,98385.13
2022-11-15T10:52:12.748Z,98381.44
2022-11-15T10:54:49.610Z,98377.78
2022-11-15T10:57:23.928Z,98378.47
2022-11-15T11:00:00.465Z,98371.38
2022-11-15T11:03:00.102Z,98373.69
2022-11-15T11:05:29.113Z,98371.78
2022-11-15T11:08:10.604Z,98367.34
2022-11-15T11:10:51.726Z,98366.28
2022-11-15T11:13:36.767Z,98363.50
2022-11-15T11:16:15.667Z,98363.31
2022-11-15T11:19:18.863Z,98375.19
2022-11-15T11:22:07.178Z,98356.41
2022-11-15T11:24:40.391Z,98360.22
2022-11-15T11:27:38.203Z,98366.88
2022-11-15T11:30:29.721Z,98358.03
2022-11-15T11:33:14.056Z,98363.13
2022-11-15T11:35:58.857Z,98361.19
2022-11-15T11:39:16.622Z,98347.16
2022-11-15T11:42:33.163Z,98355.50
2022-11-15T11:45:17.520Z,98347.47
2022-11-15T11:48:20.798Z,98335.25
2022-11-15T11:50:48.163Z,98329.91
2022-11-15T11:53:33.938Z,98322.78
2022-11-15T11:56:19.373Z,98315.69
2022-11-15T11:58:48.408Z,98310.31
2022-11-15T12:01:30.486Z,98309.69
2022-11-15T12:04:22.402Z,98311.28
2022-11-15T12:07:12.084Z,98306.84
2022-11-15T12:10:00.670Z,98306.66
2022-11-15T12:12:40.565Z,98299.53
2022-11-15T12:15:10.543Z,98298.50
2022-11-15T12:17:39.816Z,98291.38
2022-11-15T12:20:28.288Z,98286.94
2022-11-15T12:23:15.836Z,98293.59
2022-11-15T12:26:20.907Z,98285.75
2022-11-15T12:29:09.015Z,98278.72
2022-11-15T12:31:36.065Z,98277.69
2022-11-15T12:34:17.285Z,98272.28
2022-11-15T12:36:45.356Z,98273.03
2022-11-15T12:39:13.922Z,98281.56
2022-11-15T12:42:11.711Z,98280.63
2022-11-15T12:44:39.175Z,98283.16
2022-11-15T12:47:24.787Z,98266.22
2022-11-15T12:49:52.810Z,98265.25
2022-11-15T12:52:20.464Z,98280.25
2022-11-15T12:54:56.809Z,98277.56
2022-11-15T12:57:34.060Z,98274.81
2022-11-15T13:00:15.598Z,98268.72
2022-11-15T13:02:46.213Z,98274.72
2022-11-15T13:05:19.401Z,98267.69
2022-11-15T13:07:46.337Z,98265.00
2022-11-15T13:10:13.086Z,98253.81
2022-11-15T13:12:45.513Z,98257.97
2022-11-15T13:15:18.168Z,98252.78
2022-11-15T13:17:53.444Z,98239.28
2022-11-15T13:20:30.723Z,98243.25
2022-11-15T13:23:17.517Z,98243.03
2022-11-15T13:26:05.752Z,98230.81
2022-11-15T13:28:45.168Z,98232.47
2022-11-15T13:31:38.812Z,98219.41
2022-11-15T13:37:21.103Z,98223.59
2022-11-15T13:39:51.507Z,98218.31
2022-11-15T13:42:21.538Z,98211.25
2022-11-15T13:45:02.843Z,98210.41
2022-11-15T13:47:30.632Z,98192.56
2022-11-15T13:50:02.072Z,98201.63
2022-11-15T13:52:38.007Z,98190.31
2022-11-15T13:55:23.835Z,98180.69
2022-11-15T13:58:00.942Z,98180.56
2022-11-15T14:00:44.757Z,98178.81
2022-11-15T14:03:33.060Z,98175.28
2022-11-15T14:06:16.942Z,98147.28
2022-11-15T14:09:10.874Z,98162.22
2022-11-15T14:11:38.718Z,98150.31
2022-11-15T14:14:16.308Z,98144.47
2022-11-15T14:16:46.705Z,98156.13
2022-11-15T14:19:24.384Z,98150.00
2022-11-15T14:22:23.250Z,98138.72
2022-11-15T14:25:08.798Z,98135.16
2022-11-15T14:27:35.692Z,98132.56
2022-11-15T14:30:03.444Z,98136.81
2022-11-15T14:32:47.573Z,98123.03
2022-11-15T14:35:20.493Z,98116.91
2022-11-15T14:37:48.080Z,98116.91
2022-11-15T14:40:18.798Z,98109.88
2022-11-15T14:42:47.520Z,98108.09
2022-11-15T14:45:21.260Z,98110.69
2022-11-15T14:47:48.870Z,98110.59
2022-11-15T14:50:21.729Z,98103.72
2022-11-15T14:52:49.633Z,98115.78
2022-11-15T14:55:22.210Z,98101.03
2022-11-15T14:57:49.036Z,98101.97
2022-11-15T15:00:16.872Z,98101.88
2022-11-15T15:02:46.427Z,98106.22
2022-11-15T15:05:20.883Z,98097.31
2022-11-15T15:07:48.721Z,98090.38
2022-11-15T15:10:39.054Z,98090.47
2022-11-15T15:13:05.679Z,98076.56
2022-11-15T15:15:37.925Z,98080.91
2022-11-15T15:18:06.065Z,98072.59
2022-11-15T15:20:33.545Z,98071.78
2022-11-15T15:23:00.309Z,98078.25
2022-11-15T15:25:36.039Z,98062.69
2022-11-15T15:28:03.349Z,98067.88
2022-11-15T15:30:31.808Z,98045.34
2022-11-15T15:32:58.643Z,98066.91
2022-11-15T15:35:31.348Z,98069.50
2022-11-15T15:37:58.157Z,98055.59
2022-11-15T15:40:26.678Z,98048.88
2022-11-15T15:42:53.465Z,98047.91
2022-11-15T15:45:20.582Z,98047.81
2022-11-15T15:47:48.024Z,98046.06
2022-11-15T15:50:29.256Z,98044.19
2022-11-15T15:52:58.921Z,98040.75
2022-11-15T15:55:26.476Z,98035.69
2022-11-15T15:57:53.555Z,98031.34
2022-11-15T16:00:22.150Z,98031.34
2022-11-15T16:02:48.882Z,98025.19
2022-11-15T16:05:16.442Z,98017.22
2022-11-15T16:07:44.204Z,98000.50
2022-11-15T16:10:31.160Z,98020.00
2022-11-15T16:12:59.093Z,98007.03
2022-11-15T16:15:29.128Z,98005.41
2022-11-15T16:17:59.549Z,98014.59
2022-11-15T16:20:38.245Z,98006.19
2022-11-15T16:23:09.682Z,98002.06
2022-11-15T16:25:56.348Z,97994.28
2022-11-15T16:28:26.626Z,97994.28
2022-11-15T16:31:09.980Z,97989.22
2022-11-15T16:33:37.504Z,97989.22
2022-11-15T16:36:06.618Z,97988.38
2022-11-15T16:38:33.999Z,97972.50
2022-11-15T16:41:01.213Z,97981.53
2022-11-15T16:43:28.146Z,97982.44
2022-11-15T16:45:55.333Z,97979.06
2022-11-15T16:48:27.570Z,97981.72
2022-11-15T16:50:59.018Z,97978.22
2022-11-15T16:53:27.791Z,97971.34
2022-11-15T16:55:55.845Z,97966.38
2022-11-15T16:58:22.946Z,97970.53
2022-11-15T17:00:54.624Z,97961.91
2022-11-15T17:03:22.991Z,97960.28
2022-11-15T17:05:50.167Z,97957.69
2022-11-15T17:08:17.163Z,97940.13
2022-11-15T17:10:44.460Z,97957.78
2022-11-15T17:13:13.908Z,97952.69
2022-11-15T17:15:40.743Z,97949.16
2022-11-15T17:18:15.339Z,97945.84
2022-11-15T17:20:43.370Z,97949.16
2022-11-15T17:23:14.362Z,97944.09
2022-11-15T17:25:41.613Z,97940.66
2022-11-15T17:28:08.480Z,97945.84
2022-11-15T17:30:35.692Z,97945.84
2022-11-15T17:33:02.550Z,97937.22
2022-11-15T17:35:29.344Z,97937.34
2022-11-15T17:37:56.091Z,97926.13
2022-11-15T17:40:22.886Z,97931.31
2022-11-15T17:42:49.673Z,97937.34
2022-11-15T17:45:16.570Z,97922.72
2022-11-15T17:47:43.419Z,97925.31
2022-11-15T17:50:10.690Z,97917.53
2022-11-15T17:52:37.659Z,97912.75
2022-11-15T17:55:04.775Z,97911.22
2022-11-15T17:57:31.587Z,97913.25
2022-11-15T17:59:58.345Z,97924.47
2022-11-15T18:02:25.094Z,97927.91
2022-11-15T18:04:51.956Z,97917.53
2022-11-15T18:07:18.797Z,97898.34
2022-11-15T18:09:45.694Z,97912.34
2022-11-15T18:12:12.599Z,97910.66
2022-11-15T18:14:39.630Z,97913.47
2022-11-15T18:17:06.429Z,97905.47
2022-11-15T18:19:33.589Z,97889.53
2022-11-15T18:22:01.333Z,97905.47
2022-11-15T18:24:33.735Z,97900.50
2022-11-15T18:27:03.448Z,97902.88
2022-11-15T18:29:30.527Z,97905.47
2022-11-15T18:31:58.724Z,97902.88
2022-11-15T18:34:31.884Z,97900.28
2022-11-15T18:36:58.882Z,97898.53
2022-11-15T18:39:25.762Z,97879.25
2022-11-15T18:41:52.637Z,97889.91
2022-11-15T18:44:19.657Z,97883.19
2022-11-15T18:46:46.697Z,97888.16
2022-11-15T18:49:16.660Z,97884.63
2022-11-15T18:51:43.906Z,97889.91
2022-11-15T18:54:15.555Z,97892.50
2022-11-15T18:56:44.556Z,97872.00
2022-11-15T18:59:11.370Z,97887.34
2022-11-15T19:01:43.754Z,97896.78
2022-11-15T19:04:14.260Z,97887.44
2022-11-15T19:06:43.973Z,97885.69
2022-11-15T19:09:15.201Z,97895.09
2022-11-15T19:11:43.337Z,97894.19
2022-11-15T19:14:15.354Z,97902.69
2022-11-15T19:16:55.041Z,97888.16
2022-11-15T19:19:25.374Z,97880.28
2022-11-15T19:21:52.835Z,97873.75
2022-11-15T19:24:19.956Z,97879.44
2022-11-15T19:26:47.061Z,97872.50
2022-11-15T19:29:14.120Z,97866.81
2022-11-15T19:31:42.001Z,97873.44
2022-11-15T19:34:09.325Z,97876.03
2022-11-15T19:36:39.754Z,97861.28
2022-11-15T19:39:11.086Z,97860.59
2022-11-15T19:41:43.487Z,97846.06
2022-11-15T19:44:12.100Z,97845.13
2022-11-15T19:46:39.603Z,97842.44
2022-11-15T19:49:07.982Z,97836.13
2022-11-15T19:51:34.931Z,97826.56
2022-11-15T19:54:06.426Z,97827.69
2022-11-15T19:56:34.816Z,97808.75
2022-11-15T19:59:03.012Z,97818.78
2022-11-15T20:01:33.220Z,97827.78
2022-11-15T20:04:00.534Z,97819.91
2022-11-15T20:06:31.151Z,97805.00
2022-11-15T20:08:58.723Z,97821.78
2022-11-15T20:11:26.265Z,97801.25
2022-11-15T20:14:01.988Z,97808.00
2022-11-15T20:16:29.341Z,97808.13
2022-11-15T20:18:56.192Z,97802.94
2022-11-15T20:21:23.139Z,97806.31
2022-11-15T20:23:50.987Z,97800.34
2022-11-15T20:26:19.879Z,97786.53
2022-11-15T20:28:48.083Z,97790.88
2022-11-15T20:31:16.307Z,97787.47
2022-11-15T20:33:43.358Z,97778.88
2022-11-15T20:36:13.597Z,97779.69
2022-11-15T20:38:40.661Z,97787.38
2022-11-15T20:41:07.879Z,97786.66
2022-11-15T20:43:34.749Z,97779.09
2022-11-15T20:46:01.750Z,97772.13
2022-11-15T20:48:28.676Z,97765.19
2022-11-15T20:51:17.671Z,97772.00
2022-11-15T20:53:45.591Z,97766.81
2022-11-15T20:56:23.677Z,97765.91
2022-11-15T20:58:51.142Z,97769.31
2022-11-15T21:01:24.477Z,97764.22
2022-11-15T21:03:55.938Z,97766.81
2022-11-15T21:06:25.116Z,97759.03
2022-11-15T21:09:11.866Z,97752.44
2022-11-15T21:11:57.773Z,97759.88
2022-11-15T21:14:24.544Z,97758.34
2022-11-15T21:16:51.356Z,97753.34
2022-11-15T21:19:19.752Z,97754.81
2022-11-15T21:21:49.528Z,97741.84
2022-11-15T21:24:16.335Z,97741.84
2022-11-15T21:26:43.252Z,97753.16
2022-11-15T21:29:09.998Z,97743.59
2022-11-15T21:31:37.420Z,97747.25
2022-11-15T21:34:04.412Z,97741.22
2022-11-15T21:36:31.389Z,97735.94
2022-11-15T21:38:58.263Z,97730.63
2022-11-15T21:41:25.032Z,97737.50
2022-11-15T21:43:51.871Z,97724.53
2022-11-15T21:46:18.645Z,97729.81
2022-11-15T21:48:45.578Z,97718.72
2022-11-15T21:51:12.491Z,97722.84
2022-11-15T21:53:39.303Z,97723.69
2022-11-15T21:56:06.835Z,97723.69
2022-11-15T21:58:33.908Z,97713.31
2022-11-15T22:01:20.050Z,97707.53
2022-11-15T22:03:47.011Z,97709.78
2022-11-15T22:06:17.742Z,97700.34
2022-11-15T22:08:46.095Z,97701.31
2022-11-15T22:11:13.792Z,97704.94
2022-11-15T22:13:40.671Z,97690.09
2022-11-15T22:16:08.439Z,97695.50
2022-11-15T22:18:35.662Z,97692.47
2022-11-15T22:21:11.078Z,97689.16
2022-11-15T22:23:38.103Z,97690.72
2022-11-15T22:26:06.076Z,97690.72
2022-11-15T22:28:33.643Z,97688.94
2022-11-15T22:31:00.628Z,97689.88
2022-11-15T22:33:30.321Z,97698.47
2022-11-15T22:35:58.045Z,97702.84
2022-11-15T22:38:26.219Z,97700.25
2022-11-15T22:40:53.346Z,97693.41
2022-11-15T22:43:23.280Z,97694.44
2022-11-15T22:45:57.368Z,97699.41
2022-11-15T22:48:30.911Z,97701.31
2022-11-15T22:50:58.600Z,97703.91
2022-11-15T22:53:26.339Z,97691.34
2022-11-15T22:55:55.946Z,97698.72
2022-11-15T22:58:25.463Z,97675.19
2022-11-15T23:00:55.527Z,97695.41
2022-11-15T23:03:23.583Z,97697.88
2022-11-15T23:05:51.034Z,97696.94
2022-11-15T23:08:18.995Z,97702.22
2022-11-15T23:11:04.749Z,97704.09
2022-11-15T23:13:32.850Z,97707.88
2022-11-15T23:16:25.898Z,97707.63
2022-11-15T23:18:57.226Z,97708.34
2022-11-15T23:21:55.617Z,97702.34
2022-11-15T23:24:23.241Z,97701.50
2022-11-15T23:26:55.921Z,97702.44
2022-11-15T23:29:25.006Z,97694.91
2022-11-15T23:32:12.076Z,97695.63
2022-11-15T23:34:42.240Z,97692.91
2022-11-15T23:37:12.464Z,97687.25
2022-11-15T23:39:39.652Z,97687.84
2022-11-15T23:42:09.390Z,97683.59
2022-11-15T23:44:36.873Z,97689.59
2022-11-15T23:47:03.795Z,97673.25
2022-11-15T23:49:30.577Z,97693.94
2022-11-15T23:51:57.369Z,97699.13
2022-11-15T23:54:24.139Z,97691.34
2022-11-15T23:56:50.930Z,97691.34
2022-11-15T23:59:18.229Z,97692.41
